createdAt,value
2023-04-18T00:00:44.585Z,8
2023-04-18T00:01:44.696Z,9
2023-04-18T00:02:44.674Z,8
2023-04-18T00:03:44.742Z,9
2023-04-18T00:04:44.630Z,8
2023-04-18T00:05:44.572Z,9
2023-04-18T00:06:44.562Z,9
2023-04-18T00:07:44.585Z,9
2023-04-18T00:08:54.888Z,9
2023-04-18T00:09:44.856Z,9
2023-04-18T00:10:44.557Z,8
2023-04-18T00:11:44.583Z,10
2023-04-18T00:12:44.575Z,9
2023-04-18T00:13:44.551Z,8
2023-04-18T00:14:44.555Z,9
2023-04-18T00:15:44.573Z,10
2023-04-18T00:16:44.650Z,10
2023-04-18T00:17:44.595Z,9
2023-04-18T00:18:44.549Z,10
2023-04-18T00:19:44.555Z,10
2023-04-18T00:20:44.555Z,10
2023-04-18T00:21:44.665Z,10
2023-04-18T00:22:44.589Z,8
2023-04-18T00:23:44.557Z,8
2023-04-18T00:24:44.578Z,11
2023-04-18T00:25:44.552Z,11
2023-04-18T00:26:44.561Z,11
2023-04-18T00:27:44.589Z,9
2023-04-18T00:28:44.577Z,11
2023-04-18T00:29:44.586Z,11
2023-04-18T00:30:44.580Z,10
2023-04-18T00:31:44.591Z,9
2023-04-18T00:32:44.603Z,11
2023-04-18T00:33:44.584Z,11
2023-04-18T00:34:44.575Z,10
2023-04-18T00:35:44.608Z,9
2023-04-18T00:36:44.551Z,11
2023-04-18T00:37:44.604Z,9
2023-04-18T00:38:44.564Z,10
2023-04-18T00:39:44.562Z,10
2023-04-18T00:40:44.576Z,10
2023-04-18T00:41:44.559Z,10
2023-04-18T00:42:44.598Z,9
2023-04-18T00:43:44.586Z,8
2023-04-18T00:44:44.547Z,10
2023-04-18T00:45:44.634Z,10
2023-04-18T00:46:44.565Z,10
2023-04-18T00:47:44.620Z,11
2023-04-18T00:49:44.555Z,11
2023-04-18T00:50:44.564Z,11
2023-04-18T00:51:44.567Z,11
2023-04-18T00:52:44.578Z,11
2023-04-18T00:53:44.568Z,9
2023-04-18T00:54:44.565Z,11
2023-04-18T00:55:44.581Z,10
2023-04-18T00:56:44.576Z,9
2023-04-18T00:57:44.582Z,10
2023-04-18T00:58:44.581Z,10
2023-04-18T00:59:44.556Z,9
2023-04-18T01:00:44.579Z,11
2023-04-18T01:01:44.582Z,9
2023-04-18T01:02:44.696Z,10
2023-04-18T01:03:44.786Z,11
2023-04-18T01:04:44.569Z,9
2023-04-18T01:05:44.565Z,11
2023-04-18T01:06:44.667Z,10
2023-04-18T01:07:44.600Z,9
2023-04-18T01:08:44.558Z,10
2023-04-18T01:09:44.554Z,11
2023-04-18T01:10:44.553Z,9
2023-04-18T01:11:44.572Z,11
2023-04-18T01:12:44.572Z,11
2023-04-18T01:13:44.566Z,9
2023-04-18T01:14:44.591Z,11
2023-04-18T01:15:44.587Z,11
2023-04-18T01:16:44.644Z,10
2023-04-18T01:17:44.650Z,9
2023-04-18T01:18:44.568Z,10
2023-04-18T01:19:44.567Z,10
2023-04-18T01:20:44.562Z,10
2023-04-18T01:21:44.569Z,9
2023-04-18T01:22:44.603Z,11
2023-04-18T01:23:44.570Z,11
2023-04-18T01:24:44.561Z,10
2023-04-18T01:25:44.556Z,9
2023-04-18T01:26:44.579Z,10
2023-04-18T01:27:44.584Z,10
2023-04-18T01:28:44.564Z,9
2023-04-18T01:29:44.550Z,10
2023-04-18T01:30:44.567Z,10
2023-04-18T01:31:44.579Z,10
2023-04-18T01:32:44.622Z,10
2023-04-18T01:33:44.571Z,11
2023-04-18T01:34:44.556Z,10
2023-04-18T01:35:44.561Z,10
2023-04-18T01:36:44.572Z,11
2023-04-18T01:37:44.604Z,11
2023-04-18T01:38:44.558Z,10
2023-04-18T01:39:44.580Z,9
2023-04-18T01:40:44.550Z,10
2023-04-18T01:41:44.555Z,11
2023-04-18T01:42:44.575Z,11
2023-04-18T01:43:44.555Z,10
2023-04-18T01:44:44.548Z,10
2023-04-18T01:45:44.567Z,10
2023-04-18T01:46:44.637Z,10
2023-04-18T01:47:44.610Z,8
2023-04-18T01:48:44.568Z,9
2023-04-18T01:49:44.582Z,10
2023-04-18T01:50:44.563Z,11
2023-04-18T01:51:44.599Z,10
2023-04-18T01:52:44.595Z,11
2023-04-18T01:53:44.563Z,10
2023-04-18T01:54:44.587Z,11
2023-04-18T01:55:44.554Z,10
2023-04-18T01:56:44.552Z,9
2023-04-18T01:57:44.580Z,11
2023-04-18T01:58:44.576Z,11
2023-04-18T01:59:44.571Z,9
2023-04-18T02:00:44.601Z,11
2023-04-18T02:01:44.569Z,10
2023-04-18T02:02:44.733Z,11
2023-04-18T02:03:44.781Z,9
2023-04-18T02:04:44.551Z,11
2023-04-18T02:05:44.572Z,11
2023-04-18T02:06:44.567Z,11
2023-04-18T02:07:44.586Z,9
2023-04-18T02:08:44.576Z,10
2023-04-18T02:09:44.553Z,10
2023-04-18T02:10:44.565Z,9
2023-04-18T02:11:44.599Z,10
2023-04-18T02:13:44.547Z,10
2023-04-18T02:14:44.576Z,10
2023-04-18T02:15:44.560Z,10
2023-04-18T02:16:44.565Z,9
2023-04-18T02:17:44.555Z,10
2023-04-18T02:18:44.565Z,10
2023-04-18T02:19:44.561Z,9
2023-04-18T02:20:44.541Z,10
2023-04-18T02:21:44.551Z,10
2023-04-18T02:22:44.603Z,9
2023-04-18T02:24:44.578Z,10
2023-04-18T02:25:44.563Z,9
2023-04-18T02:26:44.573Z,11
2023-04-18T02:27:44.566Z,11
2023-04-18T02:28:44.561Z,8
2023-04-18T02:29:44.565Z,10
2023-04-18T02:30:44.576Z,9
2023-04-18T02:31:44.612Z,10
2023-04-18T02:32:44.552Z,10
2023-04-18T02:33:44.564Z,9
2023-04-18T02:34:44.579Z,10
2023-04-18T02:35:44.570Z,10
2023-04-18T02:36:44.551Z,10
2023-04-18T02:37:44.558Z,8
2023-04-18T02:38:44.576Z,10
2023-04-18T02:39:44.566Z,10
2023-04-18T02:40:44.557Z,10
2023-04-18T02:41:44.556Z,8
2023-04-18T02:42:44.545Z,10
2023-04-18T02:43:44.577Z,10
2023-04-18T02:44:44.572Z,9
2023-04-18T02:45:44.571Z,10
2023-04-18T02:46:44.576Z,10
2023-04-18T02:47:54.488Z,10
2023-04-18T02:49:44.560Z,10
2023-04-18T02:50:44.569Z,9
2023-04-18T02:51:44.572Z,8
2023-04-18T02:52:44.567Z,9
2023-04-18T02:53:44.570Z,10
2023-04-18T02:54:44.570Z,8
2023-04-18T02:55:44.573Z,10
2023-04-18T02:56:44.572Z,10
2023-04-18T02:57:44.574Z,9
2023-04-18T02:58:44.566Z,9
2023-04-18T02:59:44.548Z,10
2023-04-18T03:00:44.554Z,10
2023-04-18T03:01:44.614Z,10
2023-04-18T03:02:44.647Z,9
2023-04-18T03:03:44.567Z,10
2023-04-18T03:04:44.600Z,10
2023-04-18T03:05:44.540Z,8
2023-04-18T03:06:44.614Z,10
2023-04-18T03:07:44.562Z,10
2023-04-18T03:08:44.572Z,9
2023-04-18T03:09:44.571Z,9
2023-04-18T03:10:44.554Z,10
2023-04-18T03:11:44.559Z,9
2023-04-18T03:12:44.565Z,9
2023-04-18T03:13:44.560Z,10
2023-04-18T03:14:44.569Z,7
2023-04-18T03:15:44.660Z,9
2023-04-18T03:16:44.550Z,9
2023-04-18T03:17:54.854Z,9
2023-04-18T03:18:44.565Z,9
2023-04-18T03:19:44.553Z,8
2023-04-18T03:20:44.541Z,9
2023-04-18T03:21:44.561Z,8
2023-04-18T03:22:44.568Z,9
2023-04-18T03:23:44.548Z,9
2023-04-18T03:24:44.579Z,9
2023-04-18T03:25:44.558Z,9
2023-04-18T03:26:44.570Z,8
2023-04-18T03:27:44.596Z,9
2023-04-18T03:28:44.586Z,9
2023-04-18T03:29:44.549Z,8
2023-04-18T03:30:44.568Z,9
2023-04-18T03:31:44.668Z,9
2023-04-18T03:32:44.582Z,9
2023-04-18T03:33:44.571Z,9
2023-04-18T03:34:44.595Z,8
2023-04-18T03:35:44.537Z,7
2023-04-18T03:36:45.946Z,10
2023-04-18T03:37:44.594Z,9
2023-04-18T03:38:44.589Z,8
2023-04-18T03:39:44.592Z,8
2023-04-18T03:40:44.553Z,9
2023-04-18T03:41:44.569Z,9
2023-04-18T03:42:44.564Z,8
2023-04-18T03:43:44.545Z,9
2023-04-18T03:44:44.573Z,9
2023-04-18T03:45:44.576Z,8
2023-04-18T03:46:44.629Z,9
2023-04-18T03:47:44.659Z,10
2023-04-18T03:48:44.561Z,10
2023-04-18T03:49:44.586Z,9
2023-04-18T03:50:44.554Z,8
2023-04-18T03:51:44.587Z,10
2023-04-18T03:52:44.570Z,10
2023-04-18T03:53:44.551Z,9
2023-04-18T03:54:44.570Z,8
2023-04-18T03:55:44.550Z,10
2023-04-18T03:56:44.554Z,9
2023-04-18T03:57:44.602Z,8
2023-04-18T03:58:44.560Z,9
2023-04-18T03:59:46.143Z,9
2023-04-18T04:00:44.558Z,10
2023-04-18T04:01:44.561Z,9
2023-04-18T04:02:44.750Z,9
2023-04-18T04:03:44.730Z,9
2023-04-18T04:04:44.591Z,8
2023-04-18T04:05:44.563Z,10
2023-04-18T04:06:44.546Z,8
2023-04-18T04:07:44.559Z,10
2023-04-18T04:08:44.561Z,10
2023-04-18T04:09:44.565Z,8
2023-04-18T04:10:44.549Z,10
2023-04-18T04:11:44.581Z,10
2023-04-18T04:12:44.544Z,8
2023-04-18T04:13:44.547Z,10
2023-04-18T04:14:44.572Z,10
2023-04-18T04:15:44.558Z,8
2023-04-18T04:16:44.591Z,10
2023-04-18T04:17:44.624Z,9
2023-04-18T04:18:44.570Z,10
2023-04-18T04:19:44.559Z,10
2023-04-18T04:20:44.544Z,10
2023-04-18T04:21:44.568Z,9
2023-04-18T04:22:44.573Z,9
2023-04-18T04:23:44.548Z,10
2023-04-18T04:24:44.583Z,11
2023-04-18T04:25:44.554Z,9
2023-04-18T04:26:44.563Z,10
2023-04-18T04:27:44.594Z,10
2023-04-18T04:28:44.555Z,9
2023-04-18T04:29:44.588Z,11
2023-04-18T04:31:44.594Z,11
2023-04-18T04:32:44.679Z,11
2023-04-18T04:33:44.545Z,9
2023-04-18T04:34:44.550Z,9
2023-04-18T04:35:44.549Z,10
2023-04-18T04:36:44.552Z,10
2023-04-18T04:37:44.555Z,11
2023-04-18T04:38:44.558Z,9
2023-04-18T04:39:44.584Z,11
2023-04-18T04:40:44.557Z,10
2023-04-18T04:41:44.560Z,9
2023-04-18T04:42:44.577Z,11
2023-04-18T04:43:44.550Z,11
2023-04-18T04:44:44.585Z,9
2023-04-18T04:45:44.742Z,11
2023-04-18T04:46:44.551Z,11
2023-04-18T04:47:44.688Z,10
2023-04-18T04:49:44.581Z,10
2023-04-18T04:50:44.562Z,11
2023-04-18T04:51:44.563Z,10
2023-04-18T04:52:44.630Z,11
2023-04-18T04:53:44.568Z,11
2023-04-18T04:54:44.572Z,9
2023-04-18T04:55:44.576Z,10
2023-04-18T04:56:44.554Z,9
2023-04-18T04:57:44.550Z,11
2023-04-18T04:58:44.576Z,9
2023-04-18T04:59:44.550Z,10
2023-04-18T05:00:44.546Z,11
2023-04-18T05:01:44.590Z,10
2023-04-18T05:02:44.801Z,9
2023-04-18T05:03:44.747Z,10
2023-04-18T05:04:44.551Z,10
2023-04-18T05:05:44.553Z,11
2023-04-18T05:06:44.551Z,11
2023-04-18T05:07:44.551Z,10
2023-04-18T05:08:44.578Z,12
2023-04-18T05:09:44.570Z,11
2023-04-18T05:10:44.540Z,11
2023-04-18T05:11:44.549Z,10
2023-04-18T05:12:44.587Z,11
2023-04-18T05:13:44.541Z,11
2023-04-18T05:14:44.573Z,10
2023-04-18T05:15:44.544Z,11
2023-04-18T05:16:44.593Z,11
2023-04-18T05:17:44.600Z,10
2023-04-18T05:18:44.552Z,11
2023-04-18T05:19:44.563Z,10
2023-04-18T05:20:44.585Z,11
2023-04-18T05:21:44.549Z,11
2023-04-18T05:22:44.561Z,9
2023-04-18T05:23:44.545Z,11
2023-04-18T05:24:44.572Z,10
2023-04-18T05:25:44.548Z,11
2023-04-18T05:26:44.583Z,11
2023-04-18T05:27:44.577Z,11
2023-04-18T05:28:44.560Z,11
2023-04-18T05:29:44.555Z,9
2023-04-18T05:30:44.603Z,11
2023-04-18T05:31:44.567Z,11
2023-04-18T05:32:44.603Z,11
2023-04-18T05:33:44.588Z,11
2023-04-18T05:34:44.568Z,9
2023-04-18T05:35:44.559Z,11
2023-04-18T05:36:44.562Z,10
2023-04-18T05:37:44.548Z,11
2023-04-18T05:38:44.520Z,11
2023-04-18T05:39:44.604Z,11
2023-04-18T05:40:44.577Z,10
2023-04-18T05:41:44.570Z,10
2023-04-18T05:42:44.553Z,10
2023-04-18T05:43:50.989Z,10
2023-04-18T05:44:44.554Z,10
2023-04-18T05:45:44.539Z,10
2023-04-18T05:46:44.598Z,11
2023-04-18T05:47:44.582Z,11
2023-04-18T05:49:44.576Z,10
2023-04-18T05:50:44.547Z,10
2023-04-18T05:51:44.572Z,10
2023-04-18T05:52:44.559Z,10
2023-04-18T05:53:44.552Z,10
2023-04-18T05:54:44.569Z,10
2023-04-18T05:55:44.552Z,10
2023-04-18T05:56:44.544Z,10
2023-04-18T05:57:44.558Z,10
2023-04-18T05:58:44.575Z,10
2023-04-18T05:59:44.558Z,10
2023-04-18T06:00:44.555Z,10
2023-04-18T06:01:44.560Z,10
2023-04-18T06:02:44.729Z,10
2023-04-18T06:03:44.773Z,10
2023-04-18T06:04:44.804Z,10
2023-04-18T06:05:44.638Z,10
2023-04-18T06:06:44.560Z,10
2023-04-18T06:07:44.588Z,9
2023-04-18T06:08:44.537Z,10
2023-04-18T06:09:44.583Z,9
2023-04-18T06:10:44.578Z,9
2023-04-18T06:11:44.576Z,10
2023-04-18T06:12:44.548Z,10
2023-04-18T06:13:44.566Z,9
2023-04-18T06:14:44.559Z,9
2023-04-18T06:15:44.593Z,9
2023-04-18T06:16:44.600Z,10
2023-04-18T06:17:44.728Z,9
2023-04-18T06:19:44.553Z,9
2023-04-18T06:20:44.569Z,9
2023-04-18T06:21:44.549Z,10
2023-04-18T06:22:44.541Z,9
2023-04-18T06:23:44.550Z,9
2023-04-18T06:24:44.598Z,9
2023-04-18T06:25:44.566Z,9
2023-04-18T06:26:44.558Z,9
2023-04-18T06:27:44.558Z,9
2023-04-18T06:28:44.561Z,10
2023-04-18T06:29:44.554Z,9
2023-04-18T06:30:44.550Z,9
2023-04-18T06:31:44.626Z,9
2023-04-18T06:32:44.608Z,9
2023-04-18T06:33:44.555Z,9
2023-04-18T06:34:44.564Z,10
2023-04-18T06:35:44.558Z,9
2023-04-18T06:36:44.570Z,9
2023-04-18T06:37:44.564Z,9
2023-04-18T06:38:44.543Z,9
2023-04-18T06:39:44.594Z,9
2023-04-18T06:40:44.548Z,9
2023-04-18T06:41:44.569Z,9
2023-04-18T06:42:44.548Z,9
2023-04-18T06:43:59.780Z,9
2023-04-18T06:44:44.573Z,9
2023-04-18T06:45:44.575Z,8
2023-04-18T06:46:44.567Z,8
2023-04-18T06:47:44.676Z,9
2023-04-18T06:49:44.577Z,8
2023-04-18T06:50:44.559Z,9
2023-04-18T06:51:44.539Z,8
2023-04-18T06:52:44.564Z,8
2023-04-18T06:53:44.557Z,8
2023-04-18T06:54:44.572Z,8
2023-04-18T06:55:44.553Z,9
2023-04-18T06:56:44.551Z,8
2023-04-18T06:57:44.558Z,8
2023-04-18T06:58:44.563Z,8
2023-04-18T06:59:44.560Z,8
2023-04-18T07:00:44.604Z,8
2023-04-18T07:01:44.547Z,7
2023-04-18T07:02:44.706Z,8
2023-04-18T07:03:44.707Z,7
2023-04-18T07:04:44.635Z,8
2023-04-18T07:05:44.569Z,8
2023-04-18T07:06:44.548Z,7
2023-04-18T07:07:44.558Z,8
2023-04-18T07:08:44.553Z,7
2023-04-18T07:09:44.613Z,7
2023-04-18T07:10:44.571Z,7
2023-04-18T07:11:44.566Z,7
2023-04-18T07:12:44.575Z,7
2023-04-18T07:13:44.546Z,7
2023-04-18T07:14:44.562Z,7
2023-04-18T07:15:44.559Z,7
2023-04-18T07:16:44.617Z,7
2023-04-18T07:17:44.617Z,7
2023-04-18T07:19:44.556Z,7
2023-04-18T07:20:44.541Z,7
2023-04-18T07:21:44.587Z,7
2023-04-18T07:22:44.554Z,7
2023-04-18T07:23:44.544Z,7
2023-04-18T07:24:44.587Z,7
2023-04-18T07:25:44.543Z,7
2023-04-18T07:26:44.545Z,7
2023-04-18T07:27:44.554Z,6
2023-04-18T07:28:44.550Z,7
2023-04-18T07:29:44.562Z,7
2023-04-18T07:30:44.628Z,7
2023-04-18T07:31:44.548Z,7
2023-04-18T07:32:44.736Z,7
2023-04-18T07:33:44.558Z,7
2023-04-18T07:34:44.549Z,7
2023-04-18T07:35:44.555Z,7
2023-04-18T07:36:44.569Z,7
2023-04-18T07:37:44.553Z,7
2023-04-18T07:38:44.562Z,7
2023-04-18T07:39:44.567Z,6
2023-04-18T07:40:44.555Z,7
2023-04-18T07:41:44.555Z,6
2023-04-18T07:42:44.596Z,6
2023-04-18T07:43:44.574Z,7
2023-04-18T07:44:44.571Z,6
2023-04-18T07:45:44.559Z,6
2023-04-18T07:46:44.610Z,7
2023-04-18T07:47:44.707Z,7
2023-04-18T07:48:44.554Z,6
2023-04-18T07:49:44.565Z,7
2023-04-18T07:50:44.609Z,6
2023-04-18T07:51:44.673Z,6
2023-04-18T07:52:44.784Z,6
2023-04-18T07:53:44.566Z,6
2023-04-18T07:54:44.571Z,6
2023-04-18T07:55:44.557Z,6
2023-04-18T07:56:44.552Z,6
2023-04-18T07:57:45.957Z,6
2023-04-18T07:58:44.573Z,6
2023-04-18T07:59:44.591Z,7
2023-04-18T08:00:44.582Z,6
2023-04-18T08:01:44.580Z,6
2023-04-18T08:02:44.654Z,6
2023-04-18T08:03:44.643Z,7
2023-04-18T08:04:44.829Z,6
2023-04-18T08:05:44.563Z,6
2023-04-18T08:06:44.551Z,6
2023-04-18T08:07:44.587Z,6
2023-04-18T08:08:44.564Z,6
2023-04-18T08:09:44.583Z,7
2023-04-18T08:10:44.569Z,6
2023-04-18T08:11:44.545Z,6
2023-04-18T08:12:44.551Z,6
2023-04-18T08:13:44.566Z,6
2023-04-18T08:14:44.543Z,6
2023-04-18T08:15:44.593Z,6
2023-04-18T08:16:44.669Z,6
2023-04-18T08:17:44.560Z,6
2023-04-18T08:18:44.569Z,6
2023-04-18T08:19:44.568Z,6
2023-04-18T08:20:44.565Z,6
2023-04-18T08:21:44.562Z,6
2023-04-18T08:23:02.091Z,6
2023-04-18T08:23:44.568Z,6
2023-04-18T08:25:01.191Z,6
2023-04-18T08:25:44.570Z,7
2023-04-18T08:26:44.569Z,6
2023-04-18T08:27:44.541Z,6
2023-04-18T08:28:46.332Z,6
2023-04-18T08:29:44.574Z,6
2023-04-18T08:30:44.607Z,6
2023-04-18T08:31:44.583Z,6
2023-04-18T08:32:44.595Z,6
2023-04-18T08:33:44.566Z,6
2023-04-18T08:34:44.591Z,6
2023-04-18T08:35:44.614Z,6
2023-04-18T08:36:44.554Z,6
2023-04-18T08:37:44.573Z,6
2023-04-18T08:38:44.594Z,6
2023-04-18T08:39:44.564Z,6
2023-04-18T08:40:44.561Z,6
2023-04-18T08:41:44.582Z,6
2023-04-18T08:42:44.565Z,6
2023-04-18T08:43:44.547Z,6
2023-04-18T08:44:44.569Z,6
2023-04-18T08:45:44.691Z,6
2023-04-18T08:46:44.547Z,6
2023-04-18T08:47:44.563Z,6
2023-04-18T08:48:44.565Z,6
2023-04-18T08:49:44.551Z,6
2023-04-18T08:50:44.573Z,6
2023-04-18T08:51:44.546Z,6
2023-04-18T08:52:44.542Z,6
2023-04-18T08:53:44.573Z,6
2023-04-18T08:54:44.585Z,6
2023-04-18T08:55:44.575Z,6
2023-04-18T08:56:44.587Z,6
2023-04-18T08:57:44.569Z,6
2023-04-18T08:58:44.572Z,6
2023-04-18T08:59:46.240Z,6
2023-04-18T09:00:44.544Z,6
2023-04-18T09:01:44.620Z,6
2023-04-18T09:02:45.048Z,6
2023-04-18T09:03:44.598Z,6
2023-04-18T09:04:44.637Z,6
2023-04-18T09:05:44.567Z,6
2023-04-18T09:07:44.562Z,6
2023-04-18T09:08:44.605Z,6
2023-04-18T09:09:44.581Z,6
2023-04-18T09:10:46.520Z,6
2023-04-18T09:11:44.596Z,6
2023-04-18T09:12:44.693Z,5
2023-04-18T09:13:44.564Z,6
2023-04-18T09:14:44.547Z,6
2023-04-18T09:15:44.573Z,5
2023-04-18T09:16:44.706Z,6
2023-04-18T09:17:44.575Z,5
2023-04-18T09:18:44.558Z,6
2023-04-18T09:19:44.564Z,5
2023-04-18T09:20:44.586Z,6
2023-04-18T09:21:44.649Z,5
2023-04-18T09:22:44.548Z,6
2023-04-18T09:23:44.563Z,6
2023-04-18T09:24:44.578Z,5
2023-04-18T09:25:45.493Z,5
2023-04-18T09:26:44.572Z,5
2023-04-18T09:27:44.769Z,5
2023-04-18T09:28:44.623Z,5
2023-04-18T09:29:44.669Z,5
2023-04-18T09:30:44.597Z,6
2023-04-18T09:31:44.540Z,5
2023-04-18T09:32:44.622Z,5
2023-04-18T09:33:44.559Z,5
2023-04-18T09:34:44.555Z,5
2023-04-18T09:35:44.550Z,5
2023-04-18T09:36:44.587Z,5
2023-04-18T09:37:44.581Z,5
2023-04-18T09:38:44.590Z,5
2023-04-18T09:39:44.602Z,5
2023-04-18T09:40:44.575Z,5
2023-04-18T09:41:44.573Z,5
2023-04-18T09:42:44.555Z,5
2023-04-18T09:43:44.546Z,5
2023-04-18T09:44:44.578Z,5
2023-04-18T09:45:44.600Z,5
2023-04-18T09:46:46.163Z,5
2023-04-18T09:47:44.560Z,5
2023-04-18T09:48:44.575Z,5
2023-04-18T09:49:44.577Z,6
2023-04-18T09:50:44.541Z,5
2023-04-18T09:51:44.579Z,5
2023-04-18T09:52:44.578Z,5
2023-04-18T09:53:44.658Z,5
2023-04-18T09:54:45.562Z,5
2023-04-18T09:55:44.566Z,5
2023-04-18T09:56:44.562Z,5
2023-04-18T09:57:44.584Z,5
2023-04-18T09:58:44.565Z,5
2023-04-18T09:59:44.558Z,5
2023-04-18T10:00:46.809Z,5
2023-04-18T10:01:44.601Z,6
2023-04-18T10:02:44.662Z,5
2023-04-18T10:03:44.669Z,6
2023-04-18T10:04:44.666Z,5
2023-04-18T10:05:44.704Z,5
2023-04-18T10:06:44.577Z,5
2023-04-18T10:07:44.560Z,5
2023-04-18T10:08:44.559Z,5
2023-04-18T10:09:44.550Z,5
2023-04-18T10:10:44.573Z,5
2023-04-18T10:11:44.569Z,5
2023-04-18T10:12:44.574Z,5
2023-04-18T10:13:44.545Z,5
2023-04-18T10:14:44.543Z,5
2023-04-18T10:15:44.638Z,5
2023-04-18T10:16:44.604Z,5
2023-04-18T10:17:56.154Z,5
2023-04-18T10:19:44.575Z,5
2023-04-18T10:20:44.564Z,5
2023-04-18T10:21:44.547Z,5
2023-04-18T10:22:44.562Z,5
2023-04-18T10:23:44.556Z,5
2023-04-18T10:24:44.577Z,5
2023-04-18T10:25:44.582Z,5
2023-04-18T10:26:44.565Z,5
2023-04-18T10:27:44.558Z,5
2023-04-18T10:28:44.551Z,5
2023-04-18T10:29:44.574Z,5
2023-04-18T10:30:44.573Z,5
2023-04-18T10:31:44.640Z,6
2023-04-18T10:32:44.621Z,5
2023-04-18T10:33:49.704Z,5
2023-04-18T10:34:44.559Z,5
2023-04-18T10:35:44.609Z,5
2023-04-18T10:36:44.570Z,6
2023-04-18T10:37:44.566Z,5
2023-04-18T10:38:44.542Z,5
2023-04-18T10:39:44.570Z,5
2023-04-18T10:40:44.563Z,5
2023-04-18T10:41:44.562Z,5
2023-04-18T10:42:44.540Z,5
2023-04-18T10:43:44.561Z,5
2023-04-18T10:44:54.872Z,5
2023-04-18T10:45:44.557Z,6
2023-04-18T10:46:44.576Z,5
2023-04-18T10:47:44.659Z,5
2023-04-18T10:48:44.568Z,6
2023-04-18T10:49:44.574Z,6
2023-04-18T10:50:44.549Z,5
2023-04-18T10:51:44.564Z,6
2023-04-18T10:52:44.578Z,6
2023-04-18T10:53:44.588Z,5
2023-04-18T10:54:44.568Z,6
2023-04-18T10:55:44.556Z,5
2023-04-18T10:56:44.563Z,5
2023-04-18T10:57:44.574Z,5
2023-04-18T10:58:44.568Z,6
2023-04-18T10:59:44.552Z,6
2023-04-18T11:00:44.624Z,6
2023-04-18T11:01:44.571Z,5
2023-04-18T11:02:44.695Z,5
2023-04-18T11:03:44.723Z,5
2023-04-18T11:04:44.567Z,5
2023-04-18T11:05:44.600Z,5
2023-04-18T11:06:44.561Z,5
2023-04-18T11:07:44.580Z,5
2023-04-18T11:08:44.581Z,5
2023-04-18T11:09:45.498Z,5
2023-04-18T11:10:44.562Z,6
2023-04-18T11:11:44.581Z,5
2023-04-18T11:12:44.556Z,5
2023-04-18T11:13:44.610Z,5
2023-04-18T11:14:44.564Z,5
2023-04-18T11:15:44.557Z,5
2023-04-18T11:16:44.656Z,5
2023-04-18T11:17:44.617Z,5
2023-04-18T11:18:44.552Z,6
2023-04-18T11:19:44.581Z,5
2023-04-18T11:20:44.558Z,5
2023-04-18T11:21:44.552Z,5
2023-04-18T11:22:44.576Z,5
2023-04-18T11:23:44.586Z,6
2023-04-18T11:24:44.597Z,5
2023-04-18T11:25:44.568Z,5
2023-04-18T11:26:44.571Z,5
2023-04-18T11:27:44.580Z,5
2023-04-18T11:28:44.571Z,5
2023-04-18T11:29:44.577Z,5
2023-04-18T11:30:44.588Z,5
2023-04-18T11:31:44.573Z,5
2023-04-18T11:32:44.619Z,5
2023-04-18T11:33:44.594Z,5
2023-04-18T11:34:44.613Z,5
2023-04-18T11:35:44.580Z,5
2023-04-18T11:36:44.589Z,5
2023-04-18T11:37:44.582Z,5
2023-04-18T11:38:44.581Z,5
2023-04-18T11:39:44.619Z,5
2023-04-18T11:40:44.580Z,5
2023-04-18T11:41:44.564Z,5
2023-04-18T11:42:44.584Z,5
2023-04-18T11:43:44.580Z,5
2023-04-18T11:44:44.584Z,5
2023-04-18T11:45:44.626Z,5
2023-04-18T11:46:44.568Z,5
2023-04-18T11:47:44.691Z,5
2023-04-18T11:48:44.573Z,4
2023-04-18T11:49:44.629Z,5
2023-04-18T11:50:44.551Z,5
2023-04-18T11:51:44.582Z,5
2023-04-18T11:52:44.573Z,5
2023-04-18T11:53:44.586Z,5
2023-04-18T11:54:44.581Z,5
2023-04-18T11:55:44.568Z,5
2023-04-18T11:56:44.615Z,5
2023-04-18T11:57:44.560Z,5
2023-04-18T11:58:44.591Z,5
2023-04-18T11:59:44.597Z,5
2023-04-18T12:00:44.583Z,5
2023-04-18T12:01:44.583Z,4
2023-04-18T12:02:44.744Z,5
2023-04-18T12:03:44.825Z,5
2023-04-18T12:04:44.872Z,5
2023-04-18T12:05:44.740Z,4
2023-04-18T12:06:44.573Z,5
2023-04-18T12:07:44.599Z,5
2023-04-18T12:08:44.567Z,5
2023-04-18T12:09:44.626Z,5
2023-04-18T12:10:44.584Z,5
2023-04-18T12:11:44.601Z,4
2023-04-18T12:12:44.558Z,5
2023-04-18T12:13:44.566Z,5
2023-04-18T12:14:44.585Z,5
2023-04-18T12:15:44.770Z,5
2023-04-18T12:16:44.578Z,5
2023-04-18T12:17:44.606Z,5
2023-04-18T12:18:44.583Z,5
2023-04-18T12:19:44.615Z,5
2023-04-18T12:20:44.570Z,5
2023-04-18T12:21:44.566Z,5
2023-04-18T12:22:44.581Z,5
2023-04-18T12:23:44.560Z,5
2023-04-18T12:24:44.605Z,5
2023-04-18T12:25:44.578Z,5
2023-04-18T12:26:44.587Z,5
2023-04-18T12:27:44.575Z,5
2023-04-18T12:28:44.574Z,5
2023-04-18T12:29:44.604Z,5
2023-04-18T12:30:44.579Z,5
2023-04-18T12:31:44.607Z,5
2023-04-18T12:32:44.631Z,5
2023-04-18T12:33:44.611Z,5
2023-04-18T12:34:44.591Z,5
2023-04-18T12:35:44.593Z,5
2023-04-18T12:36:44.592Z,4
2023-04-18T12:37:44.587Z,5
2023-04-18T12:38:44.574Z,5
2023-04-18T12:39:44.611Z,4
2023-04-18T12:40:44.592Z,4
2023-04-18T12:41:44.580Z,4
2023-04-18T12:42:44.896Z,5
2023-04-18T12:43:44.585Z,5
2023-04-18T12:44:46.961Z,5
2023-04-18T12:45:44.571Z,5
2023-04-18T12:46:44.643Z,5
2023-04-18T12:47:44.643Z,5
2023-04-18T12:49:44.594Z,5
2023-04-18T12:50:44.585Z,5
2023-04-18T12:51:44.630Z,5
2023-04-18T12:52:44.580Z,5
2023-04-18T12:53:44.554Z,5
2023-04-18T12:54:44.602Z,5
2023-04-18T12:55:44.584Z,5
2023-04-18T12:56:44.567Z,5
2023-04-18T12:57:44.584Z,6
2023-04-18T12:58:44.566Z,6
2023-04-18T12:59:44.601Z,5
2023-04-18T13:00:44.602Z,6
2023-04-18T13:01:44.628Z,5
2023-04-18T13:02:44.819Z,6
2023-04-18T13:03:45.690Z,6
2023-04-18T13:04:44.765Z,6
2023-04-18T13:05:44.566Z,6
2023-04-18T13:06:44.597Z,6
2023-04-18T13:07:44.593Z,6
2023-04-18T13:08:44.582Z,6
2023-04-18T13:09:44.653Z,6
2023-04-18T13:10:44.593Z,6
2023-04-18T13:11:44.581Z,6
2023-04-18T13:12:44.570Z,6
2023-04-18T13:13:44.580Z,7
2023-04-18T13:14:44.580Z,7
2023-04-18T13:15:44.579Z,6
2023-04-18T13:16:44.607Z,6
2023-04-18T13:17:44.618Z,7
2023-04-18T13:18:44.587Z,5
2023-04-18T13:19:44.589Z,6
2023-04-18T13:20:44.581Z,7
2023-04-18T13:21:44.589Z,6
2023-04-18T13:22:44.594Z,6
2023-04-18T13:23:44.579Z,6
2023-04-18T13:24:44.689Z,6
2023-04-18T13:25:44.578Z,6
2023-04-18T13:26:44.588Z,6
2023-04-18T13:27:44.579Z,7
2023-04-18T13:28:44.604Z,7
2023-04-18T13:29:44.592Z,7
2023-04-18T13:30:44.580Z,6
2023-04-18T13:31:44.637Z,6
2023-04-18T13:32:44.629Z,6
2023-04-18T13:33:44.579Z,6
2023-04-18T13:34:44.657Z,6
2023-04-18T13:35:44.598Z,5
2023-04-18T13:36:44.582Z,6
2023-04-18T13:37:44.581Z,6
2023-04-18T13:38:44.581Z,6
2023-04-18T13:39:44.590Z,5
2023-04-18T13:40:44.604Z,6
2023-04-18T13:41:44.592Z,7
2023-04-18T13:42:44.574Z,6
2023-04-18T13:43:44.596Z,7
2023-04-18T13:44:44.586Z,6
2023-04-18T13:45:44.623Z,7
2023-04-18T13:46:44.600Z,7
2023-04-18T13:47:44.624Z,7
2023-04-18T13:49:44.583Z,7
2023-04-18T13:50:44.570Z,5
2023-04-18T13:51:54.866Z,6
2023-04-18T13:52:44.628Z,6
2023-04-18T13:53:44.575Z,6
2023-04-18T13:54:44.650Z,6
2023-04-18T13:55:44.579Z,6
2023-04-18T13:56:44.579Z,6
2023-04-18T13:57:44.591Z,5
2023-04-18T13:58:44.589Z,6
2023-04-18T13:59:44.647Z,6
2023-04-18T14:00:44.611Z,6
2023-04-18T14:01:44.677Z,6
2023-04-18T14:02:44.755Z,5
2023-04-18T14:03:44.753Z,6
2023-04-18T14:04:44.799Z,6
2023-04-18T14:05:44.584Z,6
2023-04-18T14:06:44.637Z,6
2023-04-18T14:07:44.624Z,7
2023-04-18T14:08:44.619Z,7
2023-04-18T14:09:44.618Z,7
2023-04-18T14:10:44.584Z,5
2023-04-18T14:11:44.604Z,7
2023-04-18T14:12:44.610Z,7
2023-04-18T14:13:44.615Z,7
2023-04-18T14:14:44.606Z,8
2023-04-18T14:15:44.661Z,7
2023-04-18T14:16:44.631Z,7
2023-04-18T14:17:45.795Z,7
2023-04-18T14:18:44.605Z,7
2023-04-18T14:19:44.639Z,4
2023-04-18T14:20:44.608Z,7
2023-04-18T14:21:44.595Z,7
2023-04-18T14:22:44.597Z,5
2023-04-18T14:23:44.600Z,6
2023-04-18T14:24:44.606Z,6
2023-04-18T14:25:44.595Z,7
2023-04-18T14:26:44.624Z,7
2023-04-18T14:27:44.616Z,7
2023-04-18T14:28:44.619Z,7
2023-04-18T14:29:44.654Z,6
2023-04-18T14:30:44.678Z,6
2023-04-18T14:31:44.830Z,6
2023-04-18T14:32:44.619Z,7
2023-04-18T14:33:44.591Z,5
2023-04-18T14:34:44.597Z,7
2023-04-18T14:35:44.604Z,6
2023-04-18T14:36:44.578Z,6
2023-04-18T14:37:44.595Z,6
2023-04-18T14:38:44.600Z,6
2023-04-18T14:39:44.644Z,7
2023-04-18T14:40:44.593Z,7
2023-04-18T14:41:44.617Z,6
2023-04-18T14:42:44.589Z,5
2023-04-18T14:43:44.610Z,6
2023-04-18T14:44:44.618Z,7
2023-04-18T14:45:44.581Z,7
2023-04-18T14:46:44.614Z,7
2023-04-18T14:47:44.721Z,7
2023-04-18T14:48:44.597Z,7
2023-04-18T14:49:44.605Z,7
2023-04-18T14:50:44.593Z,7
2023-04-18T14:51:44.591Z,7
2023-04-18T14:52:44.667Z,6